createdAt,value
2023-04-01T00:01:15.963Z,0.80
2023-04-01T00:03:43.047Z,0.57
2023-04-01T00:06:12.401Z,0.70
2023-04-01T00:08:39.066Z,0.60
2023-04-01T00:11:06.110Z,1.05
2023-04-01T00:13:33.310Z,0.70
2023-04-01T00:16:00.326Z,0.60
2023-04-01T00:18:26.933Z,0.52
2023-04-01T00:20:54.209Z,0.73
2023-04-01T00:23:21.718Z,0.63
2023-04-01T00:25:49.475Z,0.82
2023-04-01T00:28:20.994Z,0.70
2023-04-01T00:30:48.103Z,0.63
2023-04-01T00:33:15.030Z,0.70
2023-04-01T00:35:45.626Z,0.75
2023-04-01T00:38:12.390Z,0.50
2023-04-01T00:40:42.241Z,0.77
2023-04-01T00:43:21.425Z,0.90
2023-04-01T00:45:50.315Z,0.80
2023-04-01T00:48:31.702Z,0.60
2023-04-01T00:51:06.268Z,0.80
2023-04-01T00:53:34.944Z,0.68
2023-04-01T00:56:06.964Z,0.80
2023-04-01T00:58:39.231Z,0.60
2023-04-01T01:01:07.211Z,0.80
2023-04-01T01:03:33.782Z,0.50
2023-04-01T01:06:08.585Z,0.60
2023-04-01T01:09:08.615Z,0.50
2023-04-01T01:11:44.094Z,0.43
2023-04-01T01:14:24.952Z,0.77
2023-04-01T01:17:00.607Z,0.70
2023-04-01T01:19:53.384Z,0.65
2023-04-01T01:22:53.201Z,0.68
2023-04-01T01:25:35.194Z,0.60
2023-04-01T01:28:20.316Z,0.60
2023-04-01T01:31:12.540Z,0.70
2023-04-01T01:33:59.945Z,0.57
2023-04-01T01:36:31.978Z,0.68
2023-04-01T01:38:59.230Z,0.60
2023-04-01T01:41:28.191Z,0.80
2023-04-01T01:43:57.474Z,0.60
2023-04-01T01:46:27.123Z,0.60
2023-04-01T01:48:55.313Z,0.80
2023-04-01T01:51:23.264Z,0.80
2023-04-01T01:53:49.861Z,0.82
2023-04-01T01:56:19.116Z,0.63
2023-04-01T01:58:50.658Z,0.70
2023-04-01T02:01:30.006Z,0.60
2023-04-01T02:03:58.653Z,0.70
2023-04-01T02:06:30.011Z,0.52
2023-04-01T02:09:06.418Z,0.38
2023-04-01T02:11:38.886Z,0.75
2023-04-01T02:14:16.520Z,0.60
2023-04-01T02:16:56.401Z,0.60
2023-04-01T02:19:28.465Z,0.80
2023-04-01T02:22:00.563Z,0.60
2023-04-01T02:24:30.253Z,0.60
2023-04-01T02:26:56.727Z,0.47
2023-04-01T02:29:26.067Z,0.52
2023-04-01T02:31:53.880Z,0.47
2023-04-01T02:34:22.566Z,0.40
2023-04-01T02:36:51.177Z,0.50
2023-04-01T02:39:18.661Z,0.20
2023-04-01T02:41:46.304Z,0.30
2023-04-01T02:44:14.917Z,0.20
2023-04-01T02:46:42.124Z,0.50
2023-04-01T02:49:08.787Z,0.55
2023-04-01T02:51:35.776Z,0.30
2023-04-01T02:54:02.564Z,0.30
2023-04-01T02:56:29.303Z,0.40
2023-04-01T02:58:55.887Z,0.40
2023-04-01T03:01:22.869Z,0.40
2023-04-01T03:03:49.437Z,0.38
2023-04-01T03:06:17.589Z,0.40
2023-04-01T03:08:44.783Z,0.40
2023-04-01T03:11:11.900Z,0.30
2023-04-01T03:13:38.342Z,0.50
2023-04-01T03:16:05.313Z,0.40
2023-04-01T03:18:31.803Z,0.45
2023-04-01T03:20:58.273Z,0.63
2023-04-01T03:23:25.246Z,0.50
2023-04-01T03:25:51.805Z,0.60
2023-04-01T03:28:18.243Z,0.65
2023-04-01T03:30:44.686Z,1.00
2023-04-01T03:33:11.108Z,0.60
2023-04-01T03:35:37.563Z,0.57
2023-04-01T03:38:04.215Z,0.50
2023-04-01T03:40:30.754Z,0.57
2023-04-01T03:42:57.360Z,0.50
2023-04-01T03:45:23.944Z,0.50
2023-04-01T03:47:50.441Z,0.60
2023-04-01T03:50:17.097Z,0.60
2023-04-01T03:52:43.531Z,0.47
2023-04-01T03:55:10.056Z,0.70
2023-04-01T03:57:36.645Z,0.60
2023-04-01T04:00:03.637Z,0.60
2023-04-01T04:02:30.124Z,0.68
2023-04-01T04:04:56.610Z,0.60
2023-04-01T04:07:23.123Z,0.63
2023-04-01T04:09:49.614Z,0.57
2023-04-01T04:12:16.065Z,0.63
2023-04-01T04:14:42.529Z,0.90
2023-04-01T04:17:14.743Z,0.77
2023-04-01T04:19:41.180Z,0.70
2023-04-01T04:22:07.649Z,0.77
2023-04-01T04:24:36.034Z,0.55
2023-04-01T04:27:02.948Z,0.60
2023-04-01T04:29:29.376Z,0.80
2023-04-01T04:31:55.947Z,0.60
2023-04-01T04:34:23.407Z,0.60
2023-04-01T04:36:49.942Z,0.75
2023-04-01T04:39:16.448Z,0.88
2023-04-01T04:41:42.900Z,0.80
2023-04-01T04:44:09.519Z,0.95
2023-04-01T04:46:37.124Z,1.10
2023-04-01T04:49:03.698Z,1.00
2023-04-01T04:51:30.135Z,1.10
2023-04-01T04:53:56.545Z,1.40
2023-04-01T04:56:23.574Z,1.30
2023-04-01T04:58:50.109Z,1.20
2023-04-01T05:01:17.446Z,1.50
2023-04-01T05:03:44.180Z,1.25
2023-04-01T05:06:13.680Z,1.20
2023-04-01T05:08:41.345Z,1.40
2023-04-01T05:11:13.652Z,1.17
2023-04-01T05:13:40.713Z,1.30
2023-04-01T05:16:17.547Z,1.17
2023-04-01T05:18:44.436Z,0.95
2023-04-01T05:21:13.032Z,1.05
2023-04-01T05:23:39.727Z,1.17
2023-04-01T05:26:11.591Z,1.00
2023-04-01T05:28:39.228Z,1.15
2023-04-01T05:31:06.927Z,1.17
2023-04-01T05:33:34.136Z,1.00
2023-04-01T05:36:11.670Z,1.27
2023-04-01T05:38:38.504Z,1.20
2023-04-01T05:41:05.119Z,1.30
2023-04-01T05:43:31.774Z,1.55
2023-04-01T05:45:59.052Z,1.30
2023-04-01T05:48:25.650Z,1.17
2023-04-01T05:50:52.054Z,1.48
2023-04-01T05:53:18.630Z,1.08
2023-04-01T05:55:45.070Z,1.40
2023-04-01T05:58:11.477Z,1.15
2023-04-01T06:00:39.332Z,1.30
2023-04-01T06:03:06.018Z,1.20
2023-04-01T06:05:40.411Z,1.25
2023-04-01T06:08:17.602Z,1.30
2023-04-01T06:11:04.600Z,1.15
2023-04-01T06:14:11.200Z,1.30
2023-04-01T06:16:50.717Z,1.20
2023-04-01T06:19:45.374Z,1.30
2023-04-01T06:22:36.681Z,1.30
2023-04-01T06:25:18.368Z,1.48
2023-04-01T06:27:56.146Z,1.30
2023-04-01T06:30:47.912Z,1.63
2023-04-01T06:33:32.530Z,1.23
2023-04-01T06:36:14.640Z,1.20
2023-04-01T06:38:50.874Z,1.70
2023-04-01T06:41:55.181Z,1.50
2023-04-01T06:44:38.358Z,1.50
2023-04-01T06:50:00.408Z,1.73
2023-04-01T06:52:51.085Z,1.80
2023-04-01T06:55:47.021Z,2.00
2023-04-01T06:58:33.078Z,1.83
2023-04-01T07:01:04.038Z,2.10
2023-04-01T07:03:48.416Z,2.00
2023-04-01T07:06:32.763Z,2.30
2023-04-01T07:09:11.778Z,2.15
2023-04-01T07:11:39.663Z,2.47
2023-04-01T07:14:15.942Z,2.42
2023-04-01T07:16:51.183Z,2.58
2023-04-01T07:19:22.941Z,2.42
2023-04-01T07:21:53.891Z,2.55
2023-04-01T07:24:26.798Z,2.10
2023-04-01T07:26:58.246Z,2.05
2023-04-01T07:29:26.560Z,2.05
2023-04-01T07:32:03.782Z,2.45
2023-04-01T07:35:04.647Z,2.30
2023-04-01T07:37:52.854Z,2.33
2023-04-01T07:40:37.733Z,2.50
2023-04-01T07:43:38.617Z,2.55
2023-04-01T07:46:24.482Z,2.22
2023-04-01T07:48:59.353Z,1.98
2023-04-01T07:51:39.016Z,2.33
2023-04-01T07:54:19.169Z,2.25
2023-04-01T07:56:51.562Z,1.95
2023-04-01T07:59:36.825Z,2.30
2023-04-01T08:02:18.691Z,1.80
2023-04-01T08:04:55.011Z,2.53
2023-04-01T08:07:26.493Z,2.13
2023-04-01T08:10:14.778Z,2.40
2023-04-01T08:12:56.410Z,2.20
2023-04-01T08:15:28.835Z,2.65
2023-04-01T08:18:07.148Z,2.08
2023-04-01T08:21:11.195Z,2.45
2023-04-01T08:23:45.773Z,2.30
2023-04-01T08:26:17.336Z,2.30
2023-04-01T08:28:54.363Z,2.30
2023-04-01T08:31:31.692Z,2.40
2023-04-01T08:33:58.752Z,2.28
2023-04-01T08:36:38.126Z,2.05
2023-04-01T08:39:19.181Z,2.00
2023-04-01T08:42:18.528Z,1.80
2023-04-01T08:44:44.918Z,1.52
2023-04-01T08:47:27.220Z,1.45
2023-04-01T08:50:11.981Z,2.00
2023-04-01T08:52:49.077Z,1.80
2023-04-01T08:55:50.711Z,1.90
2023-04-01T08:58:33.319Z,1.77
2023-04-01T09:01:37.289Z,2.03
2023-04-01T09:04:15.661Z,2.20
2023-04-01T09:07:09.179Z,2.30
2023-04-01T09:09:36.773Z,3.10
2023-04-01T09:12:11.944Z,3.15
2023-04-01T09:15:30.984Z,2.95
2023-04-01T09:18:19.373Z,3.25
2023-04-01T09:21:13.411Z,3.70
2023-04-01T09:23:55.255Z,3.35
2023-04-01T09:26:27.746Z,4.63
2023-04-01T09:29:38.426Z,3.70
2023-04-01T09:32:23.217Z,4.03
2023-04-01T09:34:55.660Z,3.85
2023-04-01T09:37:27.822Z,3.85
2023-04-01T09:40:12.832Z,3.95
2023-04-01T09:43:06.677Z,3.88
2023-04-01T09:45:44.814Z,3.47
2023-04-01T09:48:59.752Z,3.55
2023-04-01T09:51:45.948Z,3.67
2023-04-01T09:54:47.141Z,4.75
2023-04-01T09:57:55.229Z,4.47
2023-04-01T10:04:03.248Z,3.05
2023-04-01T10:07:09.093Z,3.00
2023-04-01T10:10:12.694Z,3.13
2023-04-01T10:12:59.875Z,3.33
2023-04-01T10:15:45.223Z,4.00
2023-04-01T10:18:39.138Z,3.97
2023-04-01T10:21:27.522Z,4.10
2023-04-01T10:24:19.404Z,4.25
2023-04-01T10:27:03.248Z,3.90
2023-04-01T10:29:53.507Z,4.30
2023-04-01T10:32:22.645Z,4.30
2023-04-01T10:35:26.293Z,5.07
2023-04-01T10:38:20.993Z,4.85
2023-04-01T10:41:29.400Z,4.15
2023-04-01T10:44:23.012Z,4.15
2023-04-01T10:47:26.352Z,4.75
2023-04-01T10:50:11.385Z,4.88
2023-04-01T10:52:43.902Z,4.90
2023-04-01T10:55:47.829Z,4.47
2023-04-01T10:58:47.826Z,4.32
2023-04-01T11:01:20.616Z,5.13
2023-04-01T11:04:09.726Z,5.30
2023-04-01T11:06:54.971Z,5.15
2023-04-01T11:09:46.205Z,5.07
2023-04-01T11:12:45.133Z,5.40
2023-04-01T11:15:42.753Z,4.88
2023-04-01T11:18:37.123Z,4.22
2023-04-01T11:21:34.668Z,4.70
2023-04-01T11:24:26.155Z,4.70
2023-04-01T11:27:42.901Z,4.93
2023-04-01T11:30:34.759Z,4.40
2023-04-01T11:33:19.492Z,4.32
2023-04-01T11:36:07.708Z,4.45
2023-04-01T11:38:56.815Z,3.80
2023-04-01T11:41:44.572Z,4.05
2023-04-01T11:44:17.989Z,4.07
2023-04-01T11:47:09.412Z,3.70
2023-04-01T11:49:44.944Z,5.22
2023-04-01T11:52:30.042Z,4.75
2023-04-01T11:55:21.903Z,4.45
2023-04-01T11:58:14.061Z,3.47
2023-04-01T12:01:06.005Z,4.28
2023-04-01T12:03:51.376Z,3.53
2023-04-01T12:06:35.761Z,3.80
2023-04-01T12:09:24.003Z,4.43
2023-04-01T12:12:15.412Z,3.50
2023-04-01T12:15:05.057Z,4.70
2023-04-01T12:17:37.398Z,3.95
2023-04-01T12:20:13.023Z,3.38
2023-04-01T12:22:54.643Z,3.53
2023-04-01T12:25:31.256Z,3.65
2023-04-01T12:28:01.030Z,3.67
2023-04-01T12:30:46.217Z,3.42
2023-04-01T12:33:38.747Z,3.50
2023-04-01T12:36:23.718Z,2.90
2023-04-01T12:39:20.107Z,3.83
2023-04-01T12:42:09.560Z,3.97
2023-04-01T12:44:54.584Z,3.80
2023-04-01T12:47:55.799Z,3.83
2023-04-01T12:50:54.415Z,3.60
2023-04-01T12:53:51.698Z,3.47
2023-04-01T12:56:40.285Z,3.97
2023-04-01T12:59:28.048Z,3.97
2023-04-01T13:02:17.191Z,3.47
2023-04-01T13:05:21.026Z,3.85
2023-04-01T13:08:02.307Z,4.40
2023-04-01T13:10:37.907Z,4.10
2023-04-01T13:13:19.831Z,4.35
2023-04-01T13:16:12.338Z,4.10
2023-04-01T13:18:41.670Z,3.40
2023-04-01T13:21:31.860Z,4.50
2023-04-01T13:24:23.270Z,4.68
2023-04-01T13:27:14.000Z,5.25
2023-04-01T13:30:07.056Z,5.63
2023-04-01T13:32:44.059Z,4.55
2023-04-01T13:35:25.993Z,4.55
2023-04-01T13:38:10.767Z,4.35
2023-04-01T13:41:22.777Z,4.20
2023-04-01T13:43:59.390Z,3.33
2023-04-01T13:46:54.021Z,3.85
2023-04-01T13:49:48.199Z,4.50
2023-04-01T13:53:02.682Z,3.47
2023-04-01T13:55:29.109Z,3.25
2023-04-01T13:58:31.004Z,3.00
2023-04-01T14:01:07.784Z,3.72
2023-04-01T14:06:20.670Z,3.22
2023-04-01T14:08:53.186Z,2.70
2023-04-01T14:11:33.608Z,2.83
2023-04-01T14:14:17.246Z,3.00
2023-04-01T14:17:02.157Z,3.00
2023-04-01T14:19:29.855Z,2.70
2023-04-01T14:22:03.145Z,2.85
2023-04-01T14:24:29.549Z,2.75
2023-04-01T14:27:05.054Z,2.42
2023-04-01T14:29:44.456Z,3.22
2023-04-01T14:32:25.335Z,2.90
2023-04-01T14:35:17.794Z,3.40
2023-04-01T14:38:05.377Z,3.80
2023-04-01T14:40:53.209Z,3.80
2023-04-01T14:43:35.772Z,4.15
2023-04-01T14:46:18.237Z,4.15
2023-04-01T14:48:58.845Z,4.60
2023-04-01T14:51:31.156Z,3.92
2023-04-01T14:54:14.433Z,3.65
2023-04-01T14:56:48.729Z,3.40
2023-04-01T14:59:27.570Z,3.95
2023-04-01T15:02:04.034Z,3.90
2023-04-01T15:04:59.760Z,4.18
2023-04-01T15:08:00.952Z,3.80
2023-04-01T15:10:35.604Z,3.90
2023-04-01T15:13:13.430Z,3.88
2023-04-01T15:15:56.452Z,3.85
2023-04-01T15:21:19.498Z,5.40
2023-04-01T15:23:48.639Z,4.35
2023-04-01T15:26:23.021Z,4.78
2023-04-01T15:29:08.845Z,4.38
2023-04-01T15:32:07.656Z,4.63
2023-04-01T15:34:47.169Z,4.53
2023-04-01T15:37:31.021Z,4.25
2023-04-01T15:40:21.180Z,4.05
2023-04-01T15:43:23.086Z,4.30
2023-04-01T15:45:56.049Z,3.50
2023-04-01T15:48:40.718Z,5.22
2023-04-01T15:51:37.443Z,4.47
2023-04-01T15:54:26.007Z,4.05
2023-04-01T15:57:31.576Z,3.40
2023-04-01T16:00:34.535Z,4.00
2023-04-01T16:03:19.968Z,3.50
2023-04-01T16:06:11.199Z,6.28
2023-04-01T16:09:03.819Z,4.75
2023-04-01T16:11:41.869Z,3.88
2023-04-01T16:14:32.726Z,6.65
2023-04-01T16:17:45.207Z,4.82
2023-04-01T16:20:21.880Z,4.22
2023-04-01T16:22:58.550Z,4.07
2023-04-01T16:25:54.188Z,3.83
2023-04-01T16:28:46.426Z,4.22
2023-04-01T16:31:12.790Z,3.80
2023-04-01T16:33:56.437Z,4.60
2023-04-01T16:36:32.032Z,4.03
2023-04-01T16:39:31.885Z,3.88
2023-04-01T16:42:07.496Z,4.22
2023-04-01T16:45:09.604Z,5.13
2023-04-01T16:47:51.428Z,6.82
2023-04-01T16:50:22.266Z,3.92
2023-04-01T16:53:16.953Z,4.30
2023-04-01T16:55:51.120Z,3.83
2023-04-01T16:58:25.868Z,3.63
2023-04-01T17:01:02.584Z,4.93
2023-04-01T17:03:42.445Z,3.50
2023-04-01T17:06:22.642Z,3.90
2023-04-01T17:09:17.870Z,3.70
2023-04-01T17:12:11.508Z,3.70
2023-04-01T17:14:55.486Z,3.25
2023-04-01T17:17:36.314Z,5.10
2023-04-01T17:20:21.413Z,3.60
2023-04-01T17:22:59.939Z,4.03
2023-04-01T17:25:42.927Z,4.82
2023-04-01T17:28:51.562Z,3.83
2023-04-01T17:31:27.000Z,3.47
2023-04-01T17:34:15.629Z,3.80
2023-04-01T17:37:03.791Z,4.05
2023-04-01T17:40:13.469Z,4.43
2023-04-01T17:43:07.229Z,4.22
2023-04-01T17:45:50.000Z,8.10
2023-04-01T17:48:25.384Z,7.63
2023-04-01T17:51:12.048Z,4.60
2023-04-01T17:54:15.657Z,4.53
2023-04-01T17:56:55.887Z,4.45
2023-04-01T17:59:22.289Z,3.30
2023-04-01T18:02:19.442Z,6.35
2023-04-01T18:05:23.384Z,3.45
2023-04-01T18:07:55.660Z,5.70
2023-04-01T18:10:30.059Z,6.28
2023-04-01T18:13:09.384Z,19.25
2023-04-01T18:15:46.841Z,8.98
2023-04-01T18:18:38.047Z,4.43
2023-04-01T18:21:24.230Z,3.90
2023-04-01T18:24:11.383Z,3.95
2023-04-01T18:26:40.926Z,7.78
2023-04-01T18:29:39.297Z,4.28
2023-04-01T18:32:11.812Z,5.30
2023-04-01T18:34:59.378Z,6.20
2023-04-01T18:37:33.718Z,6.55
2023-04-01T18:40:25.318Z,7.25
2023-04-01T18:43:05.304Z,7.63
2023-04-01T18:45:38.503Z,6.93
2023-04-01T18:48:17.194Z,7.45
2023-04-01T18:51:03.210Z,12.32
2023-04-01T18:53:42.610Z,6.32
2023-04-01T18:56:31.988Z,9.52
2023-04-01T19:01:44.743Z,5.60
2023-04-01T19:04:20.594Z,9.30
2023-04-01T19:06:55.809Z,7.07
2023-04-01T19:09:24.057Z,7.15
2023-04-01T19:12:14.920Z,6.68
2023-04-01T19:14:50.550Z,7.03
2023-04-01T19:17:30.149Z,7.60
2023-04-01T19:20:22.544Z,7.57
2023-04-01T19:23:13.505Z,6.88
2023-04-01T19:25:49.231Z,9.50
2023-04-01T19:28:45.887Z,6.40
2023-04-01T19:31:31.269Z,6.38
2023-04-01T19:34:20.074Z,5.75
2023-04-01T19:36:52.633Z,6.30
2023-04-01T19:39:36.366Z,6.30
2023-04-01T19:42:46.930Z,6.35
2023-04-01T19:45:16.322Z,6.70
2023-04-01T19:48:13.990Z,5.88
2023-04-01T19:50:54.419Z,5.70
2023-04-01T19:53:47.732Z,6.30
2023-04-01T19:56:18.922Z,6.05
2023-04-01T19:59:00.389Z,5.50
2023-04-01T20:01:44.644Z,19.90
2023-04-01T20:04:17.278Z,5.63
2023-04-01T20:07:12.820Z,5.72
2023-04-01T20:09:58.066Z,5.35
2023-04-01T20:12:47.340Z,5.07
2023-04-01T20:15:41.683Z,5.13
2023-04-01T20:18:37.159Z,31.63
2023-04-01T20:21:17.402Z,5.70
2023-04-01T20:23:51.542Z,6.15
2023-04-01T20:26:26.264Z,6.55
2023-04-01T20:29:08.653Z,6.50
2023-04-01T20:31:42.432Z,6.68
2023-04-01T20:34:15.232Z,8.15
2023-04-01T20:37:01.382Z,6.63
2023-04-01T20:39:46.836Z,7.03
2023-04-01T20:42:32.144Z,7.28
2023-04-01T20:45:16.988Z,7.70
2023-04-01T20:48:18.917Z,7.57
2023-04-01T20:50:54.504Z,8.02
2023-04-01T20:53:38.028Z,6.60
2023-04-01T20:56:27.130Z,9.05
2023-04-01T20:59:21.745Z,8.80
2023-04-01T21:02:03.116Z,7.32
2023-04-01T21:04:58.729Z,8.43
2023-04-01T21:07:50.821Z,8.05
2023-04-01T21:10:42.649Z,18.98
2023-04-01T21:13:27.802Z,11.88
2023-04-01T21:16:16.128Z,8.57
2023-04-01T21:18:58.831Z,13.07
2023-04-01T21:21:35.605Z,20.60
2023-04-01T21:27:12.050Z,10.48
2023-04-01T21:29:44.087Z,17.70
2023-04-01T21:32:20.252Z,16.80
2023-04-01T21:35:11.732Z,13.13
2023-04-01T21:37:53.441Z,15.98
2023-04-01T21:40:38.611Z,11.45
2023-04-01T21:43:33.130Z,16.35
2023-04-01T21:46:33.821Z,9.27
2023-04-01T21:49:25.639Z,15.15
2023-04-01T21:52:18.895Z,10.05
2023-04-01T21:55:12.466Z,11.60
2023-04-01T21:57:44.727Z,18.80
2023-04-01T22:00:17.145Z,8.43
2023-04-01T22:03:23.889Z,10.60
2023-04-01T22:05:56.401Z,25.40
2023-04-01T22:08:47.392Z,10.90
2023-04-01T22:11:55.124Z,13.45
2023-04-01T22:14:42.896Z,16.20
2023-04-01T22:17:32.037Z,9.73
2023-04-01T22:20:15.999Z,11.55
2023-04-01T22:23:07.000Z,8.20
2023-04-01T22:26:00.210Z,8.23
2023-04-01T22:28:39.362Z,15.55
2023-04-01T22:31:11.401Z,7.10
2023-04-01T22:34:00.868Z,5.80
2023-04-01T22:36:42.058Z,3.97
2023-04-01T22:39:34.419Z,6.90
2023-04-01T22:42:22.345Z,6.95
2023-04-01T22:44:54.791Z,8.23
2023-04-01T22:47:33.733Z,7.25
2023-04-01T22:50:21.440Z,7.20
2023-04-01T22:52:51.128Z,7.75
2023-04-01T22:55:23.228Z,4.65
2023-04-01T22:58:01.155Z,13.57
2023-04-01T23:00:46.488Z,9.20
2023-04-01T23:03:23.456Z,4.97
2023-04-01T23:08:22.126Z,4.45
2023-04-01T23:10:56.473Z,4.80
2023-04-01T23:13:41.059Z,5.60
2023-04-01T23:16:09.263Z,6.20
2023-04-01T23:18:56.251Z,7.63
2023-04-01T23:21:35.524Z,5.78
2023-04-01T23:24:13.778Z,6.75
2023-04-01T23:26:46.950Z,9.45
2023-04-01T23:29:17.546Z,4.90
2023-04-01T23:31:46.609Z,5.28
2023-04-01T23:34:13.058Z,6.22
2023-04-01T23:36:46.985Z,6.18
2023-04-01T23:39:34.172Z,4.38
2023-04-01T23:42:08.501Z,4.20
2023-04-01T23:44:37.140Z,3.92
2023-04-01T23:47:06.039Z,4.63
2023-04-01T23:49:48.953Z,5.70
2023-04-01T23:52:24.014Z,5.13
2023-04-01T23:54:54.737Z,5.97
